Time;durP1;ratioP1;P1;durP2;ratioP2;P2;SDS_P1;SDS_P2;PMS_P1;PMS_P2;Temp;Humidity;BMP_temperature;BMP_pressure;BME280_temperature;BME280_humidity;BME280_pressure;Samples;Min_cycle;Max_cycle;Signal;HPM_P1;HPM_P2
2022/03/26 00:00:17;;;;;;;10.13;5.80;;;;;;;;;;4948355;28;20242;-61
2022/03/26 00:02:46;;;;;;;12.47;5.67;;;;;;;;;;4961202;28;20226;-61
2022/03/26 00:05:13;;;;;;;14.47;6.67;;;;;;;;;;4966828;28;20207;-62
2022/03/26 00:07:40;;;;;;;13.97;6.23;;;;;;;;;;4966983;28;20218;-61
2022/03/26 00:10:07;;;;;;;13.60;6.80;;;;;;;;;;4967154;28;20696;-62
2022/03/26 00:12:34;;;;;;;11.23;5.13;;;;;;;;;;4965886;28;20263;-62
2022/03/26 00:15:01;;;;;;;12.27;6.23;;;;;;;;;;4966592;28;20218;-62
2022/03/26 00:17:29;;;;;;;13.43;6.20;;;;;;;;;;4966809;28;20211;-61
2022/03/26 00:19:57;;;;;;;11.10;6.40;;;;;;;;;;4966679;28;20218;-61
2022/03/26 00:22:24;;;;;;;13.43;6.77;;;;;;;;;;4962057;28;20230;-61
2022/03/26 00:24:51;;;;;;;14.87;6.33;;;;;;;;;;4966362;28;20732;-60
2022/03/26 00:27:18;;;;;;;16.23;6.27;;;;;;;;;;4964753;28;20277;-61
2022/03/26 00:29:46;;;;;;;13.40;6.67;;;;;;;;;;4965591;28;20207;-59
2022/03/26 00:32:13;;;;;;;14.33;6.60;;;;;;;;;;4966225;28;20202;-61
2022/03/26 00:34:40;;;;;;;17.83;6.70;;;;;;;;;;4966710;28;20882;-59
2022/03/26 00:37:09;;;;;;;9.07;5.43;;;;;;;;;;4966051;28;21101;-59
2022/03/26 00:39:38;;;;;;;19.53;6.53;;;;;;;;;;4965633;28;20265;-61
2022/03/26 00:42:08;;;;;;;16.27;6.53;;;;;;;;;;4961572;28;20234;-60
2022/03/26 00:44:35;;;;;;;12.67;6.10;;;;;;;;;;4949870;28;20225;-61
2022/03/26 00:47:02;;;;;;;14.37;6.27;;;;;;;;;;4966033;28;20218;-61
2022/03/26 00:49:29;;;;;;;10.20;5.50;;;;;;;;;;4966248;28;20214;-62
2022/03/26 00:51:56;;;;;;;10.97;6.20;;;;;;;;;;4955018;28;20261;-60
2022/03/26 00:54:25;;;;;;;16.60;6.63;;;;;;;;;;4966071;28;20210;-60
2022/03/26 00:56:52;;;;;;;9.80;5.93;;;;;;;;;;4965759;28;20829;-61
2022/03/26 00:59:19;;;;;;;13.30;6.07;;;;;;;;;;4965614;28;20288;-61
2022/03/26 01:01:48;;;;;;;16.30;6.33;;;;;;;;;;4965392;28;20693;-61
2022/03/26 01:04:15;;;;;;;11.30;5.73;;;;;;;;;;4965673;28;20222;-61
2022/03/26 01:06:42;;;;;;;11.50;6.03;;;;;;;;;;4959346;28;20269;-61
2022/03/26 01:09:09;;;;;;;16.60;6.60;;;;;;;;;;4965883;28;20258;-61
2022/03/26 01:11:37;;;;;;;11.93;5.63;;;;;;;;;;4965402;28;20210;-61
2022/03/26 01:14:04;;;;;;;19.43;5.47;;;;;;;;;;4964982;28;20214;-61
2022/03/26 01:16:32;;;;;;;19.80;6.27;;;;;;;;;;4965599;28;20688;-61
2022/03/26 01:18:59;;;;;;;13.63;6.60;;;;;;;;;;4966188;28;20289;-61
2022/03/26 01:21:26;;;;;;;8.50;5.27;;;;;;;;;;4965556;28;20238;-60
2022/03/26 01:23:53;;;;;;;10.77;5.70;;;;;;;;;;4964850;28;20368;-61
2022/03/26 01:26:20;;;;;;;9.37;4.87;;;;;;;;;;4965918;28;20214;-62
2022/03/26 01:28:49;;;;;;;12.37;5.93;;;;;;;;;;4963971;28;20221;-62
2022/03/26 01:31:19;;;;;;;11.30;5.67;;;;;;;;;;4965816;28;20222;-62
2022/03/26 01:33:46;;;;;;;8.70;5.23;;;;;;;;;;4965408;28;20275;-61
2022/03/26 01:36:13;;;;;;;9.90;5.10;;;;;;;;;;4965619;28;20206;-61
2022/03/26 01:38:40;;;;;;;11.20;5.13;;;;;;;;;;4965540;28;20219;-62
2022/03/26 01:41:08;;;;;;;10.57;5.40;;;;;;;;;;4965782;28;20324;-61
2022/03/26 01:43:35;;;;;;;13.83;5.80;;;;;;;;;;4958002;28;20254;-61
2022/03/26 01:46:03;;;;;;;15.40;5.80;;;;;;;;;;4965568;28;20210;-61
2022/03/26 01:48:30;;;;;;;12.63;6.23;;;;;;;;;;4965469;28;20262;-61
2022/03/26 01:51:14;;;;;;;10.43;5.50;;;;;;;;;;4965088;28;20217;-61
2022/03/26 01:53:41;;;;;;;11.77;5.60;;;;;;;;;;4958744;28;20210;-61
2022/03/26 01:56:08;;;;;;;15.43;6.70;;;;;;;;;;4968689;28;20281;-61
2022/03/26 01:58:35;;;;;;;12.47;5.77;;;;;;;;;;4965606;28;20340;-61
2022/03/26 02:01:03;;;;;;;15.43;6.27;;;;;;;;;;4968517;28;20763;-62
2022/03/26 02:03:30;;;;;;;10.53;5.67;;;;;;;;;;4968513;28;20230;-62
2022/03/26 02:05:57;;;;;;;16.23;5.37;;;;;;;;;;4969072;28;20202;-61
2022/03/26 02:08:25;;;;;;;16.17;5.97;;;;;;;;;;4969051;28;20206;-61
2022/03/26 02:10:52;;;;;;;18.40;7.13;;;;;;;;;;4968684;28;20210;-62
2022/03/26 02:13:19;;;;;;;11.07;5.97;;;;;;;;;;4967308;28;20346;-61
2022/03/26 02:15:46;;;;;;;13.93;6.57;;;;;;;;;;4968503;28;20206;-61
2022/03/26 02:18:15;;;;;;;13.63;5.80;;;;;;;;;;4968569;28;20216;-61
2022/03/26 02:20:44;;;;;;;13.70;6.20;;;;;;;;;;4968061;28;20230;-61
2022/03/26 02:23:11;;;;;;;10.13;6.17;;;;;;;;;;4968097;28;20426;-61
2022/03/26 02:25:38;;;;;;;12.30;6.17;;;;;;;;;;4967986;28;20232;-61
2022/03/26 02:28:06;;;;;;;11.67;5.53;;;;;;;;;;4968090;28;20539;-61
2022/03/26 02:30:33;;;;;;;19.07;7.90;;;;;;;;;;4967940;28;20217;-61
2022/03/26 02:33:00;;;;;;;17.97;7.57;;;;;;;;;;4967833;28;20195;-63
2022/03/26 02:35:27;;;;;;;25.63;9.47;;;;;;;;;;4967059;28;20219;-66
2022/03/26 02:37:56;;;;;;;20.30;8.17;;;;;;;;;;4967619;28;20211;-62
2022/03/26 02:40:23;;;;;;;19.27;7.43;;;;;;;;;;4967408;28;20238;-62
2022/03/26 02:42:50;;;;;;;16.40;6.43;;;;;;;;;;4967730;28;20237;-61
2022/03/26 02:45:17;;;;;;;13.53;6.77;;;;;;;;;;4967620;28;20202;-62
2022/03/26 02:47:44;;;;;;;23.40;7.90;;;;;;;;;;4968039;28;20210;-62
2022/03/26 02:50:12;;;;;;;17.90;7.93;;;;;;;;;;4968284;28;20690;-61
2022/03/26 02:52:39;;;;;;;19.87;8.30;;;;;;;;;;4968260;28;20211;-61
2022/03/26 02:55:10;;;;;;;14.60;6.83;;;;;;;;;;4967720;28;20214;-61
2022/03/26 02:57:37;;;;;;;21.03;6.73;;;;;;;;;;4962806;28;20231;-61
2022/03/26 03:00:05;;;;;;;10.60;6.33;;;;;;;;;;4967462;28;20238;-61
2022/03/26 03:02:33;;;;;;;14.23;6.43;;;;;;;;;;4967563;28;20739;-61
2022/03/26 03:05:00;;;;;;;14.13;6.93;;;;;;;;;;4966423;28;20579;-61
2022/03/26 03:07:27;;;;;;;13.47;7.47;;;;;;;;;;4967253;28;20261;-61
2022/03/26 03:09:54;;;;;;;11.03;6.13;;;;;;;;;;4968072;28;20217;-61
2022/03/26 03:12:22;;;;;;;12.33;6.43;;;;;;;;;;4967484;28;20210;-62
2022/03/26 03:14:49;;;;;;;14.60;7.07;;;;;;;;;;4967662;28;20265;-62
2022/03/26 03:17:17;;;;;;;10.97;5.97;;;;;;;;;;4968231;28;20206;-61
2022/03/26 03:19:44;;;;;;;13.97;6.13;;;;;;;;;;4967327;28;20217;-62
2022/03/26 03:22:11;;;;;;;13.03;6.30;;;;;;;;;;4967252;28;20269;-62
2022/03/26 03:24:38;;;;;;;13.17;6.67;;;;;;;;;;4966942;28;20237;-61
2022/03/26 03:27:06;;;;;;;14.13;6.10;;;;;;;;;;4967216;28;20657;-62
2022/03/26 03:29:34;;;;;;;10.33;4.87;;;;;;;;;;4966724;28;20277;-61
2022/03/26 03:32:01;;;;;;;13.90;6.37;;;;;;;;;;4966897;28;20211;-62
2022/03/26 03:34:29;;;;;;;9.13;5.40;;;;;;;;;;4966563;28;20210;-62
2022/03/26 03:36:56;;;;;;;11.97;6.27;;;;;;;;;;4966729;28;20270;-62
2022/03/26 03:39:23;;;;;;;14.17;6.13;;;;;;;;;;4967037;28;20214;-61
2022/03/26 03:42:35;;;;;;;;;;;;;;;;;;;;;
2022/03/26 03:45:04;;;;;;;12.90;5.33;;;;;;;;;;4921198;28;20697;-61
2022/03/26 03:47:32;;;;;;;10.87;5.80;;;;;;;;;;4954606;28;20269;-61
2022/03/26 03:49:59;;;;;;;9.37;5.90;;;;;;;;;;4960348;28;20352;-61
2022/03/26 03:52:26;;;;;;;10.57;5.67;;;;;;;;;;4967554;28;20214;-61
2022/03/26 03:54:53;;;;;;;20.73;6.80;;;;;;;;;;4965044;28;20747;-61
2022/03/26 03:57:20;;;;;;;16.20;5.73;;;;;;;;;;4954294;28;20238;-61
2022/03/26 03:59:47;;;;;;;14.67;6.57;;;;;;;;;;4965538;28;20336;-61
2022/03/26 04:02:16;;;;;;;10.57;5.63;;;;;;;;;;4965953;28;20210;-61
2022/03/26 04:04:43;;;;;;;13.03;6.20;;;;;;;;;;4965995;28;20316;-61
2022/03/26 04:07:10;;;;;;;12.50;6.23;;;;;;;;;;4965572;28;20206;-61
2022/03/26 04:09:38;;;;;;;12.90;5.40;;;;;;;;;;4966459;28;20214;-61
2022/03/26 04:12:05;;;;;;;12.77;6.10;;;;;;;;;;4967840;28;20209;-61
2022/03/26 04:14:32;;;;;;;14.53;6.03;;;;;;;;;;4958529;28;20865;-61
2022/03/26 04:16:59;;;;;;;14.37;5.83;;;;;;;;;;4968270;28;20211;-62
2022/03/26 04:19:28;;;;;;;9.23;5.53;;;;;;;;;;4963649;28;20210;-61
2022/03/26 04:21:56;;;;;;;11.47;5.13;;;;;;;;;;4960503;28;20355;-61
2022/03/26 04:24:23;;;;;;;10.83;4.80;;;;;;;;;;4960118;28;20226;-61
2022/03/26 04:26:50;;;;;;;10.43;4.87;;;;;;;;;;4961291;28;20688;-61
2022/03/26 04:29:17;;;;;;;13.57;5.43;;;;;;;;;;4959093;28;20203;-61
2022/03/26 04:31:45;;;;;;;10.70;5.20;;;;;;;;;;4959831;28;20214;-60
2022/03/26 04:34:12;;;;;;;14.50;5.73;;;;;;;;;;4960786;28;20268;-60
2022/03/26 04:36:41;;;;;;;16.13;5.83;;;;;;;;;;4964076;28;20271;-61
2022/03/26 04:39:08;;;;;;;11.63;5.90;;;;;;;;;;4960601;28;20269;-61
2022/03/26 04:41:35;;;;;;;14.13;5.87;;;;;;;;;;4965538;28;20206;-61
2022/03/26 04:44:02;;;;;;;11.10;5.50;;;;;;;;;;4959326;28;20219;-62
2022/03/26 04:46:29;;;;;;;12.73;6.03;;;;;;;;;;4965326;28;20226;-61
2022/03/26 04:48:56;;;;;;;9.00;5.27;;;;;;;;;;4962781;28;20209;-62
2022/03/26 04:51:24;;;;;;;14.50;5.97;;;;;;;;;;4960233;28;20210;-61
2022/03/26 04:53:52;;;;;;;10.13;5.43;;;;;;;;;;4958657;28;20199;-61
2022/03/26 04:56:19;;;;;;;12.47;6.13;;;;;;;;;;4958958;28;20235;-61
2022/03/26 04:58:46;;;;;;;13.33;5.53;;;;;;;;;;4962344;28;20233;-61
2022/03/26 05:01:13;;;;;;;10.37;5.63;;;;;;;;;;4959741;28;20709;-61
2022/03/26 05:03:40;;;;;;;9.50;5.13;;;;;;;;;;4958325;28;20261;-61
2022/03/26 05:06:07;;;;;;;13.40;5.50;;;;;;;;;;4960218;28;20206;-61
2022/03/26 05:08:34;;;;;;;10.63;5.50;;;;;;;;;;4963861;28;20689;-61
2022/03/26 05:11:03;;;;;;;18.67;6.20;;;;;;;;;;4962491;28;20198;-61
2022/03/26 05:13:30;;;;;;;13.40;6.20;;;;;;;;;;4969694;28;20203;-61
2022/03/26 05:15:57;;;;;;;16.63;6.33;;;;;;;;;;4970385;28;20221;-61
2022/03/26 05:18:24;;;;;;;15.53;6.27;;;;;;;;;;4970303;28;20256;-61
2022/03/26 05:20:51;;;;;;;10.17;4.63;;;;;;;;;;4970183;28;20214;-61
2022/03/26 05:23:18;;;;;;;16.50;5.73;;;;;;;;;;4969511;28;20213;-61
2022/03/26 05:25:45;;;;;;;11.93;5.50;;;;;;;;;;4969451;28;20214;-61
2022/03/26 05:28:13;;;;;;;16.40;5.97;;;;;;;;;;4969766;28;20575;-61
2022/03/26 05:30:41;;;;;;;16.10;5.90;;;;;;;;;;4972183;28;20213;-61
2022/03/26 05:33:08;;;;;;;9.57;5.67;;;;;;;;;;4973522;28;20215;-61
2022/03/26 05:35:35;;;;;;;12.47;5.17;;;;;;;;;;4973502;28;20635;-61
2022/03/26 05:38:02;;;;;;;11.63;5.60;;;;;;;;;;4973462;28;20209;-61
2022/03/26 05:40:29;;;;;;;13.63;5.50;;;;;;;;;;4973759;28;20217;-61
2022/03/26 05:42:56;;;;;;;10.70;5.50;;;;;;;;;;4971960;28;20212;-60
2022/03/26 05:45:25;;;;;;;14.57;6.77;;;;;;;;;;4969695;28;20225;-61
2022/03/26 05:47:52;;;;;;;15.17;5.87;;;;;;;;;;4956842;28;20720;-60
2022/03/26 05:50:19;;;;;;;13.97;6.27;;;;;;;;;;4957848;28;20264;-61
2022/03/26 05:52:47;;;;;;;15.93;6.30;;;;;;;;;;4972891;28;20210;-61
2022/03/26 05:55:16;;;;;;;12.30;6.90;;;;;;;;;;4970515;28;20217;-60
2022/03/26 05:57:43;;;;;;;13.37;6.30;;;;;;;;;;4972386;28;20244;-60
2022/03/26 06:00:10;;;;;;;18.13;7.30;;;;;;;;;;4973106;28;20278;-60
2022/03/26 06:02:39;;;;;;;13.57;6.53;;;;;;;;;;4971734;28;20213;-61
2022/03/26 06:05:06;;;;;;;18.73;6.53;;;;;;;;;;4973114;28;20245;-61
2022/03/26 06:07:33;;;;;;;16.43;6.87;;;;;;;;;;4972993;28;20214;-61
2022/03/26 06:10:00;;;;;;;19.27;7.10;;;;;;;;;;4970163;28;20213;-61
2022/03/26 06:12:27;;;;;;;14.47;6.33;;;;;;;;;;4972578;28;20211;-61
2022/03/26 06:14:55;;;;;;;15.73;7.37;;;;;;;;;;4973364;28;20206;-61
2022/03/26 06:17:22;;;;;;;11.60;6.10;;;;;;;;;;4972585;28;20623;-61
2022/03/26 06:19:50;;;;;;;14.13;6.47;;;;;;;;;;4972125;28;20293;-61
2022/03/26 06:22:18;;;;;;;12.30;6.40;;;;;;;;;;4972232;28;20210;-61
2022/03/26 06:24:45;;;;;;;15.43;6.60;;;;;;;;;;4971814;28;20231;-62
2022/03/26 06:27:12;;;;;;;15.77;5.93;;;;;;;;;;4964245;28;20211;-62
2022/03/26 06:29:39;;;;;;;14.97;7.30;;;;;;;;;;4972034;28;20202;-60
2022/03/26 06:32:07;;;;;;;18.53;6.80;;;;;;;;;;4970798;28;20276;-60
2022/03/26 06:34:34;;;;;;;14.47;6.70;;;;;;;;;;4972613;28;20253;-60
2022/03/26 06:37:02;;;;;;;14.37;6.87;;;;;;;;;;4964510;28;20270;-60
2022/03/26 06:39:29;;;;;;;10.17;5.43;;;;;;;;;;4955225;28;20209;-61
2022/03/26 06:41:56;;;;;;;15.70;7.93;;;;;;;;;;4969052;28;20790;-60
2022/03/26 06:44:23;;;;;;;12.87;6.47;;;;;;;;;;4969183;28;20297;-60
2022/03/26 06:46:50;;;;;;;16.50;7.03;;;;;;;;;;4968820;28;20625;-59
2022/03/26 06:49:17;;;;;;;16.57;7.10;;;;;;;;;;4972811;28;20218;-59
2022/03/26 06:51:45;;;;;;;13.70;7.03;;;;;;;;;;4962062;28;20211;-62
2022/03/26 06:54:13;;;;;;;14.07;7.10;;;;;;;;;;4959150;28;20277;-59
2022/03/26 06:56:40;;;;;;;14.20;6.80;;;;;;;;;;4968624;28;20239;-60
2022/03/26 06:59:08;;;;;;;14.20;6.67;;;;;;;;;;4971754;28;20260;-60
2022/03/26 07:01:35;;;;;;;11.00;6.53;;;;;;;;;;4972048;28;20218;-60
2022/03/26 07:04:02;;;;;;;18.67;7.83;;;;;;;;;;4972214;28;20289;-62
2022/03/26 07:06:29;;;;;;;14.57;6.37;;;;;;;;;;4972125;28;20206;-61
2022/03/26 07:08:56;;;;;;;14.40;7.40;;;;;;;;;;4959098;28;20916;-60
2022/03/26 07:11:24;;;;;;;17.67;8.17;;;;;;;;;;4971921;28;20210;-61
2022/03/26 07:13:51;;;;;;;9.40;3.90;;;;;;;;;;4971570;28;20206;-61
2022/03/26 07:16:18;;;;;;;15.77;6.57;;;;;;;;;;4972185;28;20276;-61
2022/03/26 07:18:45;;;;;;;13.03;7.10;;;;;;;;;;4971866;28;20206;-61
2022/03/26 07:21:12;;;;;;;18.57;7.50;;;;;;;;;;4971884;28;20217;-60
2022/03/26 07:23:39;;;;;;;17.87;7.47;;;;;;;;;;4971972;28;20214;-61
2022/03/26 07:26:06;;;;;;;18.70;8.00;;;;;;;;;;4971398;28;20209;-61
2022/03/26 07:28:35;;;;;;;8.57;5.33;;;;;;;;;;4971485;28;20635;-61
2022/03/26 07:31:02;;;;;;;16.70;7.47;;;;;;;;;;4971423;28;20289;-61
2022/03/26 07:33:29;;;;;;;17.47;7.13;;;;;;;;;;4955206;28;20219;-61
2022/03/26 07:35:56;;;;;;;14.23;7.67;;;;;;;;;;4963675;28;20677;-61
2022/03/26 07:38:23;;;;;;;16.07;7.63;;;;;;;;;;4971333;28;20213;-60
2022/03/26 07:40:50;;;;;;;16.40;7.23;;;;;;;;;;4971383;28;20724;-61
2022/03/26 07:43:17;;;;;;;20.67;6.57;;;;;;;;;;4971129;28;20210;-60
2022/03/26 07:45:45;;;;;;;20.37;8.20;;;;;;;;;;4971454;28;20254;-61
2022/03/26 07:48:12;;;;;;;14.13;5.90;;;;;;;;;;4971472;28;20214;-61
2022/03/26 07:50:40;;;;;;;12.67;5.90;;;;;;;;;;4971542;28;20268;-60
2022/03/26 07:53:07;;;;;;;12.00;7.03;;;;;;;;;;4970425;28;20297;-61
2022/03/26 07:55:34;;;;;;;20.07;7.47;;;;;;;;;;4971155;28;20286;-60
2022/03/26 07:58:01;;;;;;;10.40;5.53;;;;;;;;;;4970653;28;21404;-61
2022/03/26 08:00:28;;;;;;;19.60;8.43;;;;;;;;;;4971129;28;20707;-61
2022/03/26 08:02:56;;;;;;;16.67;7.17;;;;;;;;;;4971328;28;20210;-61
2022/03/26 08:05:23;;;;;;;17.13;7.73;;;;;;;;;;4970589;28;20273;-62
2022/03/26 08:07:51;;;;;;;19.00;8.43;;;;;;;;;;4966377;28;20340;-61
2022/03/26 08:10:18;;;;;;;17.87;7.73;;;;;;;;;;4958915;28;20210;-62
2022/03/26 08:12:45;;;;;;;19.47;8.07;;;;;;;;;;4957461;28;20210;-62
2022/03/26 08:15:12;;;;;;;15.10;6.80;;;;;;;;;;4950311;29;20640;-62
2022/03/26 08:17:42;;;;;;;18.37;8.37;;;;;;;;;;4964543;28;20269;-62
2022/03/26 08:20:11;;;;;;;15.93;7.97;;;;;;;;;;4969907;28;20213;-60
2022/03/26 08:22:41;;;;;;;17.30;8.17;;;;;;;;;;4969737;28;20697;-62
2022/03/26 08:25:09;;;;;;;15.23;8.33;;;;;;;;;;4956488;28;20884;-60
2022/03/26 08:27:36;;;;;;;15.83;4.87;;;;;;;;;;4966719;28;20221;-61
2022/03/26 08:30:04;;;;;;;10.43;5.67;;;;;;;;;;4969356;28;20207;-61
2022/03/26 08:32:31;;;;;;;15.87;7.60;;;;;;;;;;4969841;28;20233;-61
2022/03/26 08:34:58;;;;;;;17.70;8.63;;;;;;;;;;4969870;28;20210;-61
2022/03/26 08:37:26;;;;;;;18.07;8.53;;;;;;;;;;4969748;28;20210;-61
2022/03/26 08:39:54;;;;;;;19.83;8.60;;;;;;;;;;4969861;28;20677;-62
2022/03/26 08:42:21;;;;;;;15.97;7.83;;;;;;;;;;4967801;28;20568;-64
2022/03/26 08:44:48;;;;;;;18.08;8.52;;;;;;;;;;4969488;28;20465;-62
2022/03/26 08:47:15;;;;;;;18.53;8.97;;;;;;;;;;4968872;28;20225;-62
2022/03/26 08:49:44;;;;;;;19.83;8.27;;;;;;;;;;4967961;28;20206;-61
2022/03/26 08:52:11;;;;;;;16.43;7.63;;;;;;;;;;4968977;28;20857;-61
2022/03/26 08:54:40;;;;;;;21.43;8.47;;;;;;;;;;4969480;28;20206;-61
2022/03/26 08:57:07;;;;;;;20.60;9.70;;;;;;;;;;4969100;28;20242;-61
2022/03/26 08:59:34;;;;;;;19.97;8.83;;;;;;;;;;4969623;28;20252;-60
2022/03/26 09:02:01;;;;;;;15.63;7.03;;;;;;;;;;4969481;28;20614;-61
2022/03/26 09:04:28;;;;;;;16.57;7.90;;;;;;;;;;4971098;28;20569;-62
2022/03/26 09:06:55;;;;;;;15.00;6.53;;;;;;;;;;4963967;28;20261;-61
2022/03/26 09:09:22;;;;;;;16.40;8.30;;;;;;;;;;4967166;28;20207;-61
2022/03/26 09:11:51;;;;;;;21.80;9.27;;;;;;;;;;4954126;29;20218;-61
2022/03/26 09:14:18;;;;;;;15.13;7.57;;;;;;;;;;4966880;28;20202;-61
2022/03/26 09:16:45;;;;;;;13.37;7.03;;;;;;;;;;4973537;28;20253;-62
2022/03/26 09:19:12;;;;;;;21.83;9.10;;;;;;;;;;4971569;28;20225;-60
2022/03/26 09:21:39;;;;;;;18.47;9.03;;;;;;;;;;4972773;28;20641;-62
2022/03/26 09:24:06;;;;;;;19.73;8.73;;;;;;;;;;4972489;28;20214;-60
2022/03/26 09:26:33;;;;;;;19.05;8.65;;;;;;;;;;4972508;28;20304;-60
2022/03/26 09:29:01;;;;;;;18.87;6.83;;;;;;;;;;4969288;28;20672;-61
2022/03/26 09:31:28;;;;;;;15.45;8.93;;;;;;;;;;4972763;28;20211;-60
2022/03/26 09:33:56;;;;;;;21.10;7.82;;;;;;;;;;4973206;28;20264;-61
2022/03/26 09:36:23;;;;;;;20.10;9.52;;;;;;;;;;4973210;28;20214;-61
2022/03/26 09:38:50;;;;;;;16.52;8.95;;;;;;;;;;4973125;28;20261;-60
2022/03/26 09:41:17;;;;;;;19.85;7.55;;;;;;;;;;4972872;28;20229;-60
2022/03/26 09:43:44;;;;;;;16.53;6.80;;;;;;;;;;4972224;28;20210;-61
2022/03/26 09:46:14;;;;;;;21.83;9.80;;;;;;;;;;4973060;28;20229;-61
2022/03/26 09:48:42;;;;;;;12.65;7.40;;;;;;;;;;4973312;28;20316;-60
2022/03/26 09:51:09;;;;;;;14.73;7.85;;;;;;;;;;4972955;28;20206;-60
2022/03/26 09:53:36;;;;;;;18.30;8.63;;;;;;;;;;4972555;28;20206;-60
2022/03/26 09:56:03;;;;;;;21.13;10.23;;;;;;;;;;4972314;28;20226;-61
2022/03/26 09:58:30;;;;;;;15.98;8.07;;;;;;;;;;4971994;28;20292;-60
2022/03/26 10:00:58;;;;;;;17.50;8.55;;;;;;;;;;4969306;28;20273;-61
2022/03/26 10:03:26;;;;;;;17.63;9.13;;;;;;;;;;4968437;28;20620;-60
2022/03/26 10:06:02;;;;;;;21.65;10.85;;;;;;;;;;4972387;28;20240;-61
2022/03/26 10:08:31;;;;;;;21.33;9.88;;;;;;;;;;4972346;28;20632;-61
2022/03/26 10:10:58;;;;;;;17.48;9.35;;;;;;;;;;4972063;28;20210;-61
2022/03/26 10:13:35;;;;;;;17.02;8.43;;;;;;;;;;4972007;28;20265;-61
2022/03/26 10:16:03;;;;;;;17.70;8.80;;;;;;;;;;4954557;28;20237;-61
2022/03/26 10:18:35;;;;;;;19.63;9.48;;;;;;;;;;4972355;28;20218;-61
2022/03/26 10:21:02;;;;;;;14.80;6.72;;;;;;;;;;4972011;28;20301;-61
2022/03/26 10:23:29;;;;;;;18.58;9.40;;;;;;;;;;4972055;28;20202;-61
2022/03/26 10:26:14;;;;;;;18.10;9.30;;;;;;;;;;4972062;28;20955;-61
2022/03/26 10:28:42;;;;;;;11.25;7.15;;;;;;;;;;4970481;28;20217;-61
2022/03/26 10:34:07;;;;;;;15.27;6.45;;;;;;;;;;4968814;28;20266;-61
2022/03/26 10:36:35;;;;;;;15.18;7.57;;;;;;;;;;4971862;28;20229;-61
2022/03/26 10:39:02;;;;;;;12.77;6.97;;;;;;;;;;4971916;28;20203;-60
2022/03/26 10:41:32;;;;;;;12.98;6.90;;;;;;;;;;4971359;28;20260;-61
2022/03/26 10:44:07;;;;;;;15.55;7.38;;;;;;;;;;4971607;28;20293;-61
2022/03/26 10:46:42;;;;;;;11.55;7.28;;;;;;;;;;4971686;28;20244;-61
2022/03/26 10:49:10;;;;;;;12.52;6.90;;;;;;;;;;4971288;28;20684;-61
2022/03/26 10:51:37;;;;;;;16.35;8.85;;;;;;;;;;4971525;28;20215;-61
2022/03/26 10:54:09;;;;;;;18.63;8.13;;;;;;;;;;4971115;28;20202;-61
2022/03/26 10:56:37;;;;;;;13.48;7.22;;;;;;;;;;4971249;28;20246;-61
2022/03/26 10:59:04;;;;;;;17.25;8.90;;;;;;;;;;4969567;28;20230;-61
2022/03/26 11:01:31;;;;;;;16.65;8.18;;;;;;;;;;4971616;28;20210;-61
2022/03/26 11:03:58;;;;;;;16.02;7.50;;;;;;;;;;4971161;28;20269;-62
2022/03/26 11:06:27;;;;;;;9.98;5.90;;;;;;;;;;4970949;28;20226;-60
2022/03/26 11:08:59;;;;;;;13.25;6.47;;;;;;;;;;4971619;28;20210;-60
2022/03/26 11:11:27;;;;;;;11.40;6.30;;;;;;;;;;4960491;28;20266;-60
2022/03/26 11:13:56;;;;;;;12.93;7.05;;;;;;;;;;4970032;28;20294;-60
2022/03/26 11:16:26;;;;;;;12.52;7.53;;;;;;;;;;4966550;28;20703;-61
2022/03/26 11:18:58;;;;;;;14.82;6.32;;;;;;;;;;4971432;28;20211;-61
2022/03/26 11:21:43;;;;;;;10.00;6.13;;;;;;;;;;4971135;28;20211;-60
2022/03/26 11:24:26;;;;;;;9.77;6.20;;;;;;;;;;4969904;28;20210;-60
2022/03/26 11:27:04;;;;;;;13.75;6.32;;;;;;;;;;4970463;28;20341;-61
2022/03/26 11:29:49;;;;;;;11.57;5.57;;;;;;;;;;4956586;28;20689;-60
2022/03/26 11:32:19;;;;;;;14.68;6.82;;;;;;;;;;4970409;28;20704;-60
2022/03/26 11:34:47;;;;;;;13.23;6.50;;;;;;;;;;4971094;28;20268;-60
2022/03/26 11:37:22;;;;;;;12.25;6.28;;;;;;;;;;4971052;28;20213;-60
2022/03/26 11:39:51;;;;;;;14.50;6.97;;;;;;;;;;4970982;28;20631;-60
2022/03/26 11:42:23;;;;;;;17.60;7.60;;;;;;;;;;4970683;28;20210;-62
2022/03/26 11:50:44;;;;;;;8.00;5.72;;;;;;;;;;4957324;28;20342;-61
2022/03/26 11:53:14;;;;;;;11.25;5.80;;;;;;;;;;4970064;28;20210;-61
2022/03/26 11:55:45;;;;;;;8.35;5.70;;;;;;;;;;4953019;28;20713;-60
2022/03/26 11:58:17;;;;;;;10.10;5.35;;;;;;;;;;4970197;28;20739;-61
2022/03/26 12:00:54;;;;;;;7.75;5.18;;;;;;;;;;4968876;28;20619;-61
2022/03/26 12:03:24;;;;;;;7.78;4.97;;;;;;;;;;4970335;28;20210;-62
2022/03/26 12:08:49;;;;;;;10.38;5.78;;;;;;;;;;4971101;28;20205;-63
2022/03/26 12:11:16;;;;;;;9.85;5.07;;;;;;;;;;4970568;28;20751;-60
2022/03/26 12:13:59;;;;;;;11.90;5.53;;;;;;;;;;4970132;28;20265;-60
2022/03/26 12:16:42;;;;;;;10.95;4.97;;;;;;;;;;4970400;28;20696;-61
2022/03/26 12:19:09;;;;;;;10.43;6.40;;;;;;;;;;4969492;28;20644;-60
2022/03/26 12:21:50;;;;;;;12.40;6.15;;;;;;;;;;4970566;28;20217;-60
2022/03/26 12:24:19;;;;;;;11.68;6.40;;;;;;;;;;4970201;28;20225;-60
2022/03/26 12:26:50;;;;;;;10.52;6.35;;;;;;;;;;4970068;28;20916;-61
2022/03/26 12:29:17;;;;;;;9.23;5.35;;;;;;;;;;4970026;28;20230;-61
2022/03/26 12:31:44;;;;;;;8.73;5.38;;;;;;;;;;4970120;28;20207;-61
2022/03/26 12:34:11;;;;;;;10.27;6.30;;;;;;;;;;4956325;28;20754;-61
2022/03/26 12:36:38;;;;;;;13.88;5.70;;;;;;;;;;4965902;28;20203;-61
2022/03/26 12:39:05;;;;;;;8.35;4.13;;;;;;;;;;4969614;28;20222;-61
2022/03/26 12:41:33;;;;;;;6.70;4.30;;;;;;;;;;4969117;28;20214;-61
2022/03/26 12:44:01;;;;;;;9.48;5.78;;;;;;;;;;4951844;28;20749;-61
2022/03/26 12:46:32;;;;;;;3.55;2.97;;;;;;;;;;4964464;28;20249;-61
2022/03/26 12:48:59;;;;;;;10.57;6.28;;;;;;;;;;4964367;28;20209;-61
2022/03/26 12:51:28;;;;;;;8.45;5.28;;;;;;;;;;4964792;28;20207;-61
2022/03/26 12:53:56;;;;;;;11.13;5.88;;;;;;;;;;4962671;28;20213;-62
2022/03/26 12:56:23;;;;;;;8.27;5.75;;;;;;;;;;4964302;28;20226;-61
2022/03/26 12:59:00;;;;;;;8.82;4.93;;;;;;;;;;4964866;28;20378;-61
2022/03/26 13:01:27;;;;;;;13.20;5.35;;;;;;;;;;4965529;28;20273;-61
2022/03/26 13:03:55;;;;;;;8.10;5.22;;;;;;;;;;4965711;28;20219;-62
2022/03/26 13:06:23;;;;;;;12.32;5.32;;;;;;;;;;4965893;28;20265;-61
2022/03/26 13:08:50;;;;;;;10.75;5.63;;;;;;;;;;4966699;28;20207;-61
2022/03/26 13:11:18;;;;;;;7.72;5.60;;;;;;;;;;4966433;28;20586;-61
2022/03/26 13:13:46;;;;;;;6.78;3.67;;;;;;;;;;4965483;28;20221;-61
2022/03/26 13:16:15;;;;;;;10.00;5.80;;;;;;;;;;4965809;28;20557;-61
2022/03/26 13:18:43;;;;;;;9.85;5.35;;;;;;;;;;4966429;28;20210;-61
2022/03/26 13:21:10;;;;;;;10.77;5.47;;;;;;;;;;4966093;28;20257;-63
2022/03/26 13:23:37;;;;;;;7.45;5.13;;;;;;;;;;4965762;28;20214;-62
2022/03/26 13:26:05;;;;;;;7.68;4.88;;;;;;;;;;4965662;28;20229;-61
2022/03/26 13:28:36;;;;;;;8.82;5.35;;;;;;;;;;4965807;28;20676;-61
2022/03/26 13:31:19;;;;;;;11.80;5.68;;;;;;;;;;4966772;28;20736;-61
2022/03/26 13:33:46;;;;;;;8.18;4.78;;;;;;;;;;4965548;28;20911;-61
2022/03/26 13:36:13;;;;;;;8.02;5.30;;;;;;;;;;4965992;28;20206;-61
2022/03/26 13:38:42;;;;;;;9.38;5.10;;;;;;;;;;4966033;28;20218;-60
2022/03/26 13:41:18;;;;;;;11.13;4.10;;;;;;;;;;4965608;28;20759;-60
2022/03/26 13:43:46;;;;;;;6.60;4.53;;;;;;;;;;4966012;28;20214;-61
2022/03/26 13:46:14;;;;;;;6.75;4.32;;;;;;;;;;4965776;28;20226;-61
2022/03/26 13:48:50;;;;;;;8.15;4.05;;;;;;;;;;4966014;28;20269;-60
2022/03/26 13:51:17;;;;;;;6.68;4.28;;;;;;;;;;4969095;28;20265;-61
2022/03/26 13:53:45;;;;;;;7.72;4.82;;;;;;;;;;4967445;28;20202;-67
2022/03/26 13:56:12;;;;;;;11.95;5.88;;;;;;;;;;4968584;28;20718;-61
2022/03/26 13:58:39;;;;;;;10.25;5.90;;;;;;;;;;4968440;28;20234;-61
2022/03/26 14:01:07;;;;;;;12.63;6.85;;;;;;;;;;4968723;28;20198;-62
2022/03/26 14:03:37;;;;;;;10.75;6.18;;;;;;;;;;4969210;28;20634;-62
2022/03/26 14:06:05;;;;;;;8.57;5.45;;;;;;;;;;4969219;28;20218;-62
2022/03/26 14:08:32;;;;;;;10.07;6.30;;;;;;;;;;4950857;28;20294;-63
2022/03/26 14:10:59;;;;;;;12.77;6.05;;;;;;;;;;4969171;28;20640;-60
2022/03/26 14:13:27;;;;;;;8.40;4.78;;;;;;;;;;4969068;28;20309;-60
2022/03/26 14:15:55;;;;;;;6.07;4.68;;;;;;;;;;4968842;28;20805;-61
2022/03/26 14:18:22;;;;;;;6.57;4.78;;;;;;;;;;4967508;28;20214;-60
2022/03/26 14:20:49;;;;;;;7.90;5.65;;;;;;;;;;4964964;28;20214;-61
2022/03/26 14:23:19;;;;;;;7.60;5.15;;;;;;;;;;4967887;28;20214;-61
2022/03/26 14:25:46;;;;;;;9.73;5.47;;;;;;;;;;4968036;28;20321;-61
2022/03/26 14:28:14;;;;;;;6.60;4.15;;;;;;;;;;4967707;28;20321;-63
2022/03/26 14:30:41;;;;;;;10.02;3.30;;;;;;;;;;4967659;28;20310;-61
2022/03/26 14:33:11;;;;;;;6.70;3.42;;;;;;;;;;4967843;28;20480;-61
2022/03/26 14:35:47;;;;;;;6.10;4.00;;;;;;;;;;4967262;28;20229;-61
2022/03/26 14:38:14;;;;;;;13.18;4.70;;;;;;;;;;4968200;28;20241;-61
2022/03/26 14:40:43;;;;;;;3.70;3.15;;;;;;;;;;4967611;28;20206;-60
2022/03/26 14:43:10;;;;;;;9.35;4.72;;;;;;;;;;4967041;28;20221;-61
2022/03/26 14:45:37;;;;;;;5.93;4.22;;;;;;;;;;4967712;28;20218;-61
2022/03/26 14:48:05;;;;;;;11.00;5.68;;;;;;;;;;4966627;28;20642;-62
2022/03/26 14:50:32;;;;;;;5.07;4.00;;;;;;;;;;4960715;28;20682;-61